Time;durP1;ratioP1;P1;durP2;ratioP2;P2;SDS_P1;SDS_P2;PMS_P1;PMS_P2;Temp;Humidity;BMP_temperature;BMP_pressure;BME280_temperature;BME280_humidity;BME280_pressure;Samples;Min_cycle;Max_cycle;Signal;HPM_P1;HPM_P2
2021/09/18 00:01:47;;;;;;;;;;;;;;;;;;6099124;23;19920;-92
2021/09/18 00:04:15;;;;;;;;;;;;;;;;;;6099760;23;20381;-93
2021/09/18 00:06:44;;;;;;;;;;;;;;;;;;6100828;23;19924;-93
2021/09/18 00:09:12;;;;;;;;;;;;;;;;;;6100846;23;19943;-93
2021/09/18 00:11:48;;;;;;;;;;;;;;;;;;6102098;23;19921;-92
2021/09/18 00:14:16;;;;;;;;;;;;;;;;;;6101441;23;19935;-93
2021/09/18 00:16:45;;;;;;;;;;;;;;;;;;6124732;23;19945;-91
2021/09/18 00:19:13;;;;;;;;;;;;;;;;;;6126164;23;19921;-91
2021/09/18 00:21:41;;;;;;;;;;;;;;;;;;6100791;23;19947;-90
2021/09/18 00:24:10;;;;;;;;;;;;;;;;;;6100734;23;19924;-93
2021/09/18 00:26:38;;;;;;;;;;;;;;;;;;6125730;23;20354;-91
2021/09/18 00:29:12;;;;;;;;;;;;;;;;;;6102363;23;19936;-92
2021/09/18 00:31:40;;;;;;;;;;;;;;;;;;6101579;23;19925;-92
2021/09/18 00:34:09;;;;;;;;;;;;;;;;;;6151399;23;19963;-93
2021/09/18 00:36:38;;;;;;;;;;;;;;;;;;6101758;23;19928;-93
2021/09/18 00:39:06;;;;;;;;;;;;;;;;;;6105564;23;19924;-94
2021/09/18 00:41:34;;;;;;;;;;;;;;;;;;6104568;23;19921;-93
2021/09/18 00:44:03;;;;;;;;;;;;;;;;;;6101883;23;19932;-92
2021/09/18 00:46:32;;;;;;;;;;;;;;;;;;6103287;23;20254;-92
2021/09/18 00:49:01;;;;;;;;;;;;;;;;;;6102693;23;19921;-91
2021/09/18 00:51:30;;;;;;;;;;;;;;;;;;6127856;23;19921;-91
2021/09/18 00:53:58;;;;;;;;;;;;;;;;;;6101593;23;19920;-90
2021/09/18 00:56:26;;;;;;;;;;;;;;;;;;6124989;23;20313;-90
2021/09/18 00:58:55;;;;;;;;;;;;;;;;;;6151893;23;19924;-92
2021/09/18 01:01:23;;;;;;;;;;;;;;;;;;6124987;23;19927;-93
2021/09/18 01:04:01;;;;;;;;;;;;;;;;;;6132644;23;19924;-92
2021/09/18 01:06:29;;;;;;;;;;;;;;;;;;6100133;23;19947;-91
2021/09/18 01:08:58;;;;;;;;;;;;;;;;;;6124597;23;19927;-93
2021/09/18 01:11:26;;;;;;;;;;;;;;;;;;6100723;23;19920;-92
2021/09/18 01:13:55;;;;;;;;;;;;;;;;;;6126349;23;19927;-93
2021/09/18 01:16:23;;;;;;;;;;;;;;;;;;6099206;23;20560;-93
2021/09/18 01:18:52;;;;;;;;;;;;;;;;;;6131651;23;19927;-91
2021/09/18 01:21:21;;;;;;;;;;;;;;;;;;6132867;23;19925;-90
2021/09/18 01:23:51;;;;;;;;;;;;;;;;;;6109158;23;20254;-92
2021/09/18 01:26:28;;;;;;;;;;;;;;;;;;6127629;23;19927;-91
2021/09/18 01:28:57;;;;;;;;;;;;;;;;;;6126688;23;19921;-91
2021/09/18 01:31:25;;;;;;;;;;;;;;;;;;6102133;23;20372;-93
2021/09/18 01:33:53;;;;;;;;;;;;;;;;;;6102816;23;19928;-92
2021/09/18 01:36:22;;;;;;;;;;;;;;;;;;6128355;23;20265;-93
2021/09/18 01:38:51;;;;;;;;;;;;;;;;;;6101797;23;19921;-93
2021/09/18 01:41:20;;;;;;;;;;;;;;;;;;6103403;23;19921;-91
2021/09/18 01:43:48;;;;;;;;;;;;;;;;;;6153799;23;20278;-90
2021/09/18 01:46:16;;;;;;;;;;;;;;;;;;6109026;23;19920;-92
2021/09/18 01:48:45;;;;;;;;;;;;;;;;;;6129206;23;19964;-92
2021/09/18 01:51:15;;;;;;;;;;;;;;;;;;6125646;23;19921;-92
2021/09/18 01:53:43;;;;;;;;;;;;;;;;;;6113331;23;19926;-92
2021/09/18 01:56:13;;;;;;;;;;;;;;;;;;6134582;23;19953;-92
2021/09/18 01:58:41;;;;;;;;;;;;;;;;;;6106274;23;19920;-92
2021/09/18 02:01:09;;;;;;;;;;;;;;;;;;6130426;23;19924;-92
2021/09/18 02:03:38;;;;;;;;;;;;;;;;;;6156811;23;19921;-92
2021/09/18 02:06:06;;;;;;;;;;;;;;;;;;6109177;23;19921;-91
2021/09/18 02:08:34;;;;;;;;;;;;;;;;;;6134502;23;19940;-92
2021/09/18 02:11:03;;;;;;;;;;;;;;;;;;6127936;23;19924;-92
2021/09/18 02:13:32;;;;;;;;;;;;;;;;;;6125805;23;20292;-91
2021/09/18 02:16:01;;;;;;;;;;;;;;;;;;6102310;23;20261;-90
2021/09/18 02:18:29;;;;;;;;;;;;;;;;;;6125527;23;19951;-91
2021/09/18 02:20:57;;;;;;;;;;;;;;;;;;6128063;23;19921;-92
2021/09/18 02:23:26;;;;;;;;;;;;;;;;;;6102345;23;19924;-92
2021/09/18 02:25:54;;;;;;;;;;;;;;;;;;6102484;23;19927;-91
2021/09/18 02:28:23;;;;;;;;;;;;;;;;;;6127609;23;19925;-91
2021/09/18 02:30:52;;;;;;;;;;;;;;;;;;6103996;23;19925;-91
2021/09/18 02:33:21;;;;;;;;;;;;;;;;;;6103174;23;19924;-92
2021/09/18 02:35:49;;;;;;;;;;;;;;;;;;6102142;23;19921;-91
2021/09/18 02:38:18;;;;;;;;;;;;;;;;;;6101314;23;19932;-91
2021/09/18 02:40:51;;;;;;;;;;;;;;;;;;6126891;23;19925;-92
2021/09/18 02:43:20;;;;;;;;;;;;;;;;;;6101496;23;20334;-91
2021/09/18 02:45:48;;;;;;;;;;;;;;;;;;6101725;23;19920;-92
2021/09/18 02:48:18;;;;;;;;;;;;;;;;;;6128383;23;19920;-91
2021/09/18 02:50:47;;;;;;;;;;;;;;;;;;6128952;23;19928;-94
2021/09/18 02:53:16;;;;;;;;;;;;;;;;;;6104309;23;19925;-91
2021/09/18 02:55:44;;;;;;;;;;;;;;;;;;6155433;23;19920;-91
2021/09/18 02:58:12;;;;;;;;;;;;;;;;;;6102546;23;19921;-92
2021/09/18 03:00:41;;;;;;;;;;;;;;;;;;6153477;23;19920;-94
2021/09/18 03:03:09;;;;;;;;;;;;;;;;;;6104000;23;19931;-92
2021/09/18 03:05:39;;;;;;;;;;;;;;;;;;6103748;23;19921;-92
2021/09/18 03:08:07;;;;;;;;;;;;;;;;;;6103802;23;19921;-93
2021/09/18 03:10:35;;;;;;;;;;;;;;;;;;6103798;23;19932;-92
2021/09/18 03:13:04;;;;;;;;;;;;;;;;;;6101278;23;19970;-91
2021/09/18 03:15:32;;;;;;;;;;;;;;;;;;6099871;23;19920;-90
2021/09/18 03:18:00;;;;;;;;;;;;;;;;;;6126965;23;19931;-91
2021/09/18 03:20:29;;;;;;;;;;;;;;;;;;6126487;23;19921;-91
2021/09/18 03:22:59;;;;;;;;;;;;;;;;;;6127928;23;19920;-93
2021/09/18 03:25:27;;;;;;;;;;;;;;;;;;6153142;23;20340;-92
2021/09/18 03:27:55;;;;;;;;;;;;;;;;;;6102378;23;19932;-91
2021/09/18 03:30:24;;;;;;;;;;;;;;;;;;6103161;23;19925;-93
2021/09/18 03:32:52;;;;;;;;;;;;;;;;;;6101772;23;19924;-92
2021/09/18 03:35:21;;;;;;;;;;;;;;;;;;6152534;23;20231;-91
2021/09/18 03:37:49;;;;;;;;;;;;;;;;;;6127493;23;19920;-91
2021/09/18 03:40:19;;;;;;;;;;;;;;;;;;6100842;23;19921;-92
2021/09/18 03:42:47;;;;;;;;;;;;;;;;;;6126804;23;19927;-92
2021/09/18 03:45:16;;;;;;;;;;;;;;;;;;6099301;23;19924;-91
2021/09/18 03:47:44;;;;;;;;;;;;;;;;;;6125762;23;19925;-92
2021/09/18 03:50:12;;;;;;;;;;;;;;;;;;6101660;23;19921;-93
2021/09/18 03:52:41;;;;;;;;;;;;;;;;;;6101117;23;19920;-91
2021/09/18 03:55:10;;;;;;;;;;;;;;;;;;6100402;23;19920;-93
2021/09/18 03:57:39;;;;;;;;;;;;;;;;;;6126913;23;19973;-92
2021/09/18 04:00:08;;;;;;;;;;;;;;;;;;6124947;23;19920;-90
2021/09/18 04:02:36;;;;;;;;;;;;;;;;;;6100776;23;20506;-91
2021/09/18 04:05:06;;;;;;;;;;;;;;;;;;6100973;23;20405;-90
2021/09/18 04:07:34;;;;;;;;;;;;;;;;;;6102013;23;19927;-90
2021/09/18 04:10:03;;;;;;;;;;;;;;;;;;6100208;23;19921;-90
2021/09/18 04:12:31;;;;;;;;;;;;;;;;;;6100656;23;19925;-93
2021/09/18 04:15:01;;;;;;;;;;;;;;;;;;6099294;23;20336;-89
2021/09/18 04:17:29;;;;;;;;;;;;;;;;;;6151373;23;19921;-92
2021/09/18 04:19:58;;;;;;;;;;;;;;;;;;6100461;23;20368;-91
2021/09/18 04:22:26;;;;;;;;;;;;;;;;;;6101826;23;19931;-90
2021/09/18 04:24:56;;;;;;;;;;;;;;;;;;6101068;23;19920;-93
2021/09/18 04:27:24;;;;;;;;;;;;;;;;;;6124915;23;19920;-90
2021/09/18 04:29:52;;;;;;;;;;;;;;;;;;6100257;23;19920;-90
2021/09/18 04:32:22;;;;;;;;;;;;;;;;;;6102012;23;20350;-90
2021/09/18 04:34:50;;;;;;;;;;;;;;;;;;6126689;23;19921;-91
2021/09/18 04:37:19;;;;;;;;;;;;;;;;;;6099747;23;19928;-88
2021/09/18 04:39:47;;;;;;;;;;;;;;;;;;6151519;23;19928;-92
2021/09/18 04:42:16;;;;;;;;;;;;;;;;;;6124476;23;19924;-92
2021/09/18 04:44:44;;;;;;;;;;;;;;;;;;6125389;23;19936;-91
2021/09/18 04:47:12;;;;;;;;;;;;;;;;;;6099611;23;19920;-91
2021/09/18 04:49:42;;;;;;;;;;;;;;;;;;6100283;23;19921;-92
2021/09/18 04:52:11;;;;;;;;;;;;;;;;;;6098999;23;19920;-90
2021/09/18 04:54:39;;;;;;;;;;;;;;;;;;6124281;23;19921;-92
2021/09/18 04:57:07;;;;;;;;;;;;;;;;;;6101422;23;19925;-91
2021/09/18 04:59:35;;;;;;;;;;;;;;;;;;6099999;23;19920;-91
2021/09/18 05:02:04;;;;;;;;;;;;;;;;;;6100420;23;19921;-91
2021/09/18 05:04:32;;;;;;;;;;;;;;;;;;6101374;23;19921;-90
2021/09/18 05:07:02;;;;;;;;;;;;;;;;;;6099257;23;19925;-91
2021/09/18 05:09:30;;;;;;;;;;;;;;;;;;6123231;23;19931;-90
2021/09/18 05:11:58;;;;;;;;;;;;;;;;;;6099701;23;19925;-91
2021/09/18 05:14:27;;;;;;;;;;;;;;;;;;6126562;23;20114;-91
2021/09/18 05:16:55;;;;;;;;;;;;;;;;;;6101428;23;19920;-93
2021/09/18 05:19:23;;;;;;;;;;;;;;;;;;6100174;23;19920;-92
2021/09/18 05:21:52;;;;;;;;;;;;;;;;;;6100745;23;19921;-92
2021/09/18 05:24:21;;;;;;;;;;;;;;;;;;6100614;23;19920;-92
2021/09/18 05:26:50;;;;;;;;;;;;;;;;;;6103671;23;19927;-91
2021/09/18 05:29:18;;;;;;;;;;;;;;;;;;6131312;23;20281;-89
2021/09/18 05:31:46;;;;;;;;;;;;;;;;;;6101175;23;19928;-91
2021/09/18 05:34:15;;;;;;;;;;;;;;;;;;6101044;23;19928;-91
2021/09/18 05:36:43;;;;;;;;;;;;;;;;;;6102227;23;19920;-90
2021/09/18 05:39:12;;;;;;;;;;;;;;;;;;6127184;23;19925;-90
2021/09/18 05:41:41;;;;;;;;;;;;;;;;;;6101446;23;19932;-91
2021/09/18 05:44:10;;;;;;;;;;;;;;;;;;6129458;23;19924;-90
2021/09/18 05:46:38;;;;;;;;;;;;;;;;;;6130815;23;19931;-91
2021/09/18 05:49:06;;;;;;;;;;;;;;;;;;6125737;23;20364;-92
2021/09/18 05:51:35;;;;;;;;;;;;;;;;;;6127170;23;19921;-91
2021/09/18 05:54:03;;;;;;;;;;;;;;;;;;6126669;23;20269;-91
2021/09/18 05:56:31;;;;;;;;;;;;;;;;;;6124430;23;19921;-92
2021/09/18 05:59:01;;;;;;;;;;;;;;;;;;6099932;23;19936;-92
2021/09/18 06:01:30;;;;;;;;;;;;;;;;;;6100571;23;20345;-91
2021/09/18 06:03:58;;;;;;;;;;;;;;;;;;6126339;23;19932;-91
2021/09/18 06:06:27;;;;;;;;;;;;;;;;;;6124893;23;19928;-91
2021/09/18 06:08:55;;;;;;;;;;;;;;;;;;6100428;23;19925;-90
2021/09/18 06:11:24;;;;;;;;;;;;;;;;;;6125212;23;19921;-90
2021/09/18 06:13:53;;;;;;;;;;;;;;;;;;6101363;23;20183;-90
2021/09/18 06:16:23;;;;;;;;;;;;;;;;;;6124321;23;20234;-90
2021/09/18 06:18:53;;;;;;;;;;;;;;;;;;6138781;23;20346;-92
2021/09/18 06:21:21;;;;;;;;;;;;;;;;;;6128446;23;20376;-91
2021/09/18 06:23:50;;;;;;;;;;;;;;;;;;6152885;23;19928;-93
2021/09/18 06:26:18;;;;;;;;;;;;;;;;;;6127989;23;19924;-91
2021/09/18 06:28:46;;;;;;;;;;;;;;;;;;6128681;23;19921;-90
2021/09/18 06:31:15;;;;;;;;;;;;;;;;;;6102997;23;20266;-91
2021/09/18 06:33:45;;;;;;;;;;;;;;;;;;6103668;23;19920;-90
2021/09/18 06:36:13;;;;;;;;;;;;;;;;;;6103074;23;20649;-89
2021/09/18 06:38:41;;;;;;;;;;;;;;;;;;6126830;23;19927;-92
2021/09/18 06:41:10;;;;;;;;;;;;;;;;;;6129365;23;19920;-92
2021/09/18 06:43:38;;;;;;;;;;;;;;;;;;6154537;23;20364;-91
2021/09/18 06:46:06;;;;;;;;;;;;;;;;;;6128790;23;19928;-91
2021/09/18 06:48:37;;;;;;;;;;;;;;;;;;6102541;23;19925;-92
2021/09/18 06:51:09;;;;;;;;;;;;;;;;;;6127274;23;19943;-90
2021/09/18 06:53:39;;;;;;;;;;;;;;;;;;6104097;23;19921;-92
2021/09/18 06:56:07;;;;;;;;;;;;;;;;;;6127278;23;19927;-90
2021/09/18 06:58:35;;;;;;;;;;;;;;;;;;6104227;23;19924;-92
2021/09/18 07:01:04;;;;;;;;;;;;;;;;;;6102514;23;20333;-91
2021/09/18 07:03:33;;;;;;;;;;;;;;;;;;6128498;23;19969;-90
2021/09/18 07:06:02;;;;;;;;;;;;;;;;;;6125333;23;20253;-91
2021/09/18 07:08:32;;;;;;;;;;;;;;;;;;6127079;23;19928;-89
2021/09/18 07:11:01;;;;;;;;;;;;;;;;;;6103783;23;20261;-87
2021/09/18 07:13:29;;;;;;;;;;;;;;;;;;6105773;23;19928;-90
2021/09/18 07:16:07;;;;;;;;;;;;;;;;;;6105603;23;20453;-88
2021/09/18 07:18:40;;;;;;;;;;;;;;;;;;6105800;23;19928;-88
2021/09/18 07:21:09;;;;;;;;;;;;;;;;;;6105598;23;19943;-88
2021/09/18 07:23:39;;;;;;;;;;;;;;;;;;6104893;23;19921;-89
2021/09/18 07:26:10;;;;;;;;;;;;;;;;;;6104489;23;19944;-91
2021/09/18 07:28:39;;;;;;;;;;;;;;;;;;6105365;23;20368;-88
2021/09/18 07:31:08;;;;;;;;;;;;;;;;;;6105344;23;19920;-89
2021/09/18 07:33:37;;;;;;;;;;;;;;;;;;6105888;23;19920;-89
2021/09/18 07:36:06;;;;;;;;;;;;;;;;;;6105361;23;19924;-91
2021/09/18 07:38:34;;;;;;;;;;;;;;;;;;6105338;23;19920;-91
2021/09/18 07:41:04;;;;;;;;;;;;;;;;;;6104719;23;19944;-89
2021/09/18 07:43:36;;;;;;;;;;;;;;;;;;6105569;23;19920;-91
2021/09/18 07:46:05;;;;;;;;;;;;;;;;;;6130408;23;19921;-90
2021/09/18 07:48:33;;;;;;;;;;;;;;;;;;6105254;23;19924;-90
2021/09/18 07:51:02;;;;;;;;;;;;;;;;;;6113856;23;20184;-89
2021/09/18 07:53:31;;;;;;;;;;;;;;;;;;6109789;23;19924;-91
2021/09/18 07:55:59;;;;;;;;;;;;;;;;;;6106145;23;19926;-88
2021/09/18 07:58:29;;;;;;;;;;;;;;;;;;6105429;23;19921;-90
2021/09/18 08:00:57;;;;;;;;;;;;;;;;;;6105068;23;20325;-90
2021/09/18 08:03:26;;;;;;;;;;;;;;;;;;6105291;23;19928;-88
2021/09/18 08:05:55;;;;;;;;;;;;;;;;;;6105226;23;19921;-91
2021/09/18 08:08:24;;;;;;;;;;;;;;;;;;6105486;23;19921;-87
2021/09/18 08:10:52;;;;;;;;;;;;;;;;;;6104620;23;20322;-88
2021/09/18 08:13:20;;;;;;;;;;;;;;;;;;6104335;23;19932;-92
2021/09/18 08:15:50;;;;;;;;;;;;;;;;;;6105186;23;19920;-91
2021/09/18 08:18:21;;;;;;;;;;;;;;;;;;6104637;23;19921;-91
2021/09/18 08:20:50;;;;;;;;;;;;;;;;;;6104651;23;19920;-90
2021/09/18 08:23:18;;;;;;;;;;;;;;;;;;6104269;23;19921;-90
2021/09/18 08:25:48;;;;;;;;;;;;;;;;;;6104355;23;20235;-88
2021/09/18 08:28:16;;;;;;;;;;;;;;;;;;6106920;23;19928;-87
2021/09/18 08:30:45;;;;;;;;;;;;;;;;;;6108445;23;19921;-87
2021/09/18 08:33:17;;;;;;;;;;;;;;;;;;6107807;23;19920;-86
2021/09/18 08:35:45;;;;;;;;;;;;;;;;;;6109054;23;19920;-89
2021/09/18 08:38:14;;;;;;;;;;;;;;;;;;6107980;23;19921;-89
2021/09/18 08:40:42;;;;;;;;;;;;;;;;;;6106658;23;19921;-90
2021/09/18 08:43:10;;;;;;;;;;;;;;;;;;6103374;23;19932;-90
2021/09/18 08:45:38;;;;;;;;;;;;;;;;;;6102955;23;19936;-90
2021/09/18 08:48:06;;;;;;;;;;;;;;;;;;6103615;23;20257;-88
2021/09/18 08:50:34;;;;;;;;;;;;;;;;;;6103163;23;19920;-90
2021/09/18 08:53:02;;;;;;;;;;;;;;;;;;6099119;23;19928;-91
2021/09/18 08:55:30;;;;;;;;;;;;;;;;;;6095015;23;20356;-90
2021/09/18 08:57:58;;;;;;;;;;;;;;;;;;6097398;23;19924;-91
2021/09/18 09:00:26;;;;;;;;;;;;;;;;;;6097957;23;19927;-90
2021/09/18 09:02:54;;;;;;;;;;;;;;;;;;6119581;23;19928;-92
2021/09/18 09:05:22;;;;;;;;;;;;;;;;;;6096379;23;19924;-91
2021/09/18 09:07:50;;;;;;;;;;;;;;;;;;6097650;23;19920;-91
2021/09/18 09:10:18;;;;;;;;;;;;;;;;;;6148391;23;19924;-91
2021/09/18 09:12:46;;;;;;;;;;;;;;;;;;6124165;23;19921;-88
2021/09/18 09:15:14;;;;;;;;;;;;;;;;;;6123098;23;19921;-91
2021/09/18 09:17:49;;;;;;;;;;;;;;;;;;6122307;23;20353;-90
2021/09/18 09:20:17;;;;;;;;;;;;;;;;;;6097908;23;19925;-91
2021/09/18 09:22:44;;;;;;;;;;;;;;;;;;6122672;23;19921;-91
2021/09/18 09:25:12;;;;;;;;;;;;;;;;;;6098349;23;19925;-90
2021/09/18 09:27:40;;;;;;;;;;;;;;;;;;6097190;23;19920;-91
2021/09/18 09:30:08;;;;;;;;;;;;;;;;;;6120128;23;19927;-91
2021/09/18 09:32:38;;;;;;;;;;;;;;;;;;6099163;23;19921;-91
2021/09/18 09:35:08;;;;;;;;;;;;;;;;;;6121746;23;19924;-91
2021/09/18 09:37:37;;;;;;;;;;;;;;;;;;6098272;23;20255;-89
2021/09/18 09:40:07;;;;;;;;;;;;;;;;;;6100139;23;19921;-90
2021/09/18 09:42:40;;;;;;;;;;;;;;;;;;6100529;23;19921;-90
2021/09/18 09:45:13;;;;;;;;;;;;;;;;;;6124928;23;19920;-90
2021/09/18 09:47:42;;;;;;;;;;;;;;;;;;6100313;23;19928;-90
2021/09/18 09:50:11;;;;;;;;;;;;;;;;;;6099966;23;20369;-89
2021/09/18 09:52:40;;;;;;;;;;;;;;;;;;6100439;23;19920;-89
2021/09/18 09:55:09;;;;;;;;;;;;;;;;;;6097843;23;19920;-91
2021/09/18 09:57:38;;;;;;;;;;;;;;;;;;6115032;23;19931;-91
2021/09/18 10:00:07;;;;;;;;;;;;;;;;;;6092967;23;19921;-90
2021/09/18 10:02:36;;;;;;;;;;;;;;;;;;6093836;23;19950;-90
2021/09/18 10:05:06;;;;;;;;;;;;;;;;;;6102121;23;20006;-89
2021/09/18 10:07:35;;;;;;;;;;;;;;;;;;6101707;23;19924;-88
2021/09/18 10:10:04;;;;;;;;;;;;;;;;;;6125868;23;20361;-88
2021/09/18 10:12:33;;;;;;;;;;;;;;;;;;6106781;23;19929;-89
2021/09/18 10:15:03;;;;;;;;;;;;;;;;;;6137971;23;19931;-88
2021/09/18 10:17:31;;;;;;;;;;;;;;;;;;6112229;23;19943;-88
2021/09/18 10:23:18;;;;;;;;;;;;;;;;;;6129887;23;19924;-87
2021/09/18 10:25:57;;;;;;;;;;;;;;;;;;6105261;23;19925;-88
2021/09/18 10:28:27;;;;;;;;;;;;;;;;;;6125139;23;19921;-88
2021/09/18 10:30:58;;;;;;;;;;;;;;;;;;6096948;23;20197;-89
2021/09/18 10:33:34;;;;;;;;;;;;;;;;;;6126687;23;19921;-89
2021/09/18 10:36:05;;;;;;;;;;;;;;;;;;6096719;23;19924;-89
2021/09/18 10:38:34;;;;;;;;;;;;;;;;;;6136962;23;20031;-88
2021/09/18 10:41:04;;;;;;;;;;;;;;;;;;6151233;23;19925;-87
2021/09/18 10:43:34;;;;;;;;;;;;;;;;;;6098674;23;19928;-90
2021/09/18 10:46:02;;;;;;;;;;;;;;;;;;6124110;23;19925;-88
2021/09/18 10:48:39;;;;;;;;;;;;;;;;;;6098959;23;19921;-89
2021/09/18 10:51:09;;;;;;;;;;;;;;;;;;6097059;23;20338;-89
2021/09/18 10:54:12;;;;;;;;;;;;;;;;;;5118889;27;19993;-84
2021/09/18 10:57:00;;;;;;;;;;;;;;;;;;5075024;27;19920;-86
2021/09/18 10:59:42;;;;;;;;;;;;;;;;;;5074520;27;19952;-86
2021/09/18 11:02:42;;;;;;;;;;;;;;;;;;5115583;27;19916;-83
2021/09/18 11:05:40;;;;;;;;;;;;;;;;;;5073539;27;20352;-85
2021/09/18 11:08:29;;;;;;;;;;;;;;;;;;5085395;27;20013;-84
2021/09/18 11:11:12;;;;;;;;;;;;;;;;;;5136298;27;20457;-84
2021/09/18 11:13:54;;;;;;;;;;;;;;;;;;5131585;27;20011;-85
2021/09/18 11:16:36;;;;;;;;;;;;;;;;;;5122679;27;19974;-85
2021/09/18 11:19:18;;;;;;;;;;;;;;;;;;5086505;27;20534;-85
2021/09/18 11:21:59;;;;;;;;;;;;;;;;;;5091113;27;20005;-83
2021/09/18 11:24:40;;;;;;;;;;;;;;;;;;5053833;28;19987;-84
2021/09/18 11:27:34;;;;;;;;;;;;;;;;;;5061104;27;19917;-85
2021/09/18 11:30:19;;;;;;;;;;;;;;;;;;5057725;27;19956;-84
2021/09/18 11:33:00;;;;;;;;;;;;;;;;;;5091848;27;20591;-84
2021/09/18 11:35:57;;;;;;;;;;;;;;;;;;5075872;27;19953;-84
2021/09/18 11:38:39;;;;;;;;;;;;;;;;;;5031690;27;19933;-84
2021/09/18 11:41:22;;;;;;;;;;;;;;;;;;5086152;27;19948;-84
2021/09/18 11:44:09;;;;;;;;;;;;;;;;;;5128554;27;19971;-85
2021/09/18 11:46:50;;;;;;;;;;;;;;;;;;5087322;27;19974;-84
2021/09/18 11:49:32;;;;;;;;;;;;;;;;;;5053930;27;20355;-85
2021/09/18 11:52:12;;;;;;;;;;;;;;;;;;5146255;27;19950;-84
2021/09/18 11:54:55;;;;;;;;;;;;;;;;;;5050269;27;19939;-83
2021/09/18 11:57:37;;;;;;;;;;;;;;;;;;5122563;27;19967;-84
2021/09/18 12:00:19;;;;;;;;;;;;;;;;;;5125906;27;19920;-84
2021/09/18 12:03:00;;;;;;;;;;;;;;;;;;5137714;27;19980;-82
2021/09/18 12:05:41;;;;;;;;;;;;;;;;;;5121477;27;19951;-84
2021/09/18 12:08:23;;;;;;;;;;;;;;;;;;5077785;27;19924;-83
2021/09/18 12:11:06;;;;;;;;;;;;;;;;;;5103658;27;20639;-84
2021/09/18 12:13:48;;;;;;;;;;;;;;;;;;5095905;27;19916;-84
2021/09/18 12:16:29;;;;;;;;;;;;;;;;;;5100397;27;19947;-85
2021/09/18 12:19:10;;;;;;;;;;;;;;;;;;5137294;27;19919;-84
2021/09/18 12:21:51;;;;;;;;;;;;;;;;;;5087105;27;19964;-84
2021/09/18 12:24:37;;;;;;;;;;;;;;;;;;5106238;27;20367;-84
2021/09/18 12:27:29;;;;;;;;;;;;;;;;;;5121665;27;19984;-84
2021/09/18 12:30:13;;;;;;;;;;;;;;;;;;5073717;28;19932;-86
2021/09/18 12:33:07;;;;;;;;;;;;;;;;;;5056552;27;19994;-85
2021/09/18 12:35:49;;;;;;;;;;;;;;;;;;5066308;27;20279;-84
2021/09/18 12:38:30;;;;;;;;;;;;;;;;;;5095187;27;19927;-83
2021/09/18 12:41:12;;;;;;;;;;;;;;;;;;5142139;27;19930;-83
2021/09/18 12:43:56;;;;;;;;;;;;;;;;;;5125203;27;19967;-85
2021/09/18 12:46:40;;;;;;;;;;;;;;;;;;5165285;27;19969;-84
2021/09/18 12:49:22;;;;;;;;;;;;;;;;;;5133344;27;20354;-84
2021/09/18 12:52:04;;;;;;;;;;;;;;;;;;5080609;27;20392;-85
2021/09/18 12:54:45;;;;;;;;;;;;;;;;;;5074845;27;19945;-83
2021/09/18 12:57:26;;;;;;;;;;;;;;;;;;5138741;27;19916;-83
2021/09/18 13:00:20;;;;;;;;;;;;;;;;;;5114854;27;19947;-84
2021/09/18 13:03:12;;;;;;;;;;;;;;;;;;5106410;27;20366;-84
2021/09/18 13:06:32;;;;;;;;;;;;;;;;;;5176487;27;19919;-86
2021/09/18 13:09:11;;;;;;;;;;;;;;;;;;5054712;27;2024043;-86
2021/09/18 13:11:53;;;;;;;;;;;;;;;;;;5107779;27;19924;-85
2021/09/18 13:14:34;;;;;;;;;;;;;;;;;;5137108;27;19947;-84
2021/09/18 13:17:18;;;;;;;;;;;;;;;;;;5076378;27;19954;-83
2021/09/18 13:20:02;;;;;;;;;;;;;;;;;;5074928;27;19978;-85
2021/09/18 13:22:45;;;;;;;;;;;;;;;;;;5134475;27;19959;-84
2021/09/18 13:35:50;;;;;;;;;;;;;;;;;;5084584;28;19916;-87
2021/09/18 13:48:55;;;;;;;;;;;;;;;;;;5105182;27;19977;-85
2021/09/18 13:51:37;;;;;;;;;;;;;;;;;;5080523;27;20027;-86
2021/09/18 13:54:19;;;;;;;;;;;;;;;;;;5078354;27;19982;-86
2021/09/18 13:57:00;;;;;;;;;;;;;;;;;;5079820;27;19978;-85
2021/09/18 13:59:42;;;;;;;;;;;;;;;;;;5072575;27;20374;-86
2021/09/18 14:02:24;;;;;;;;;;;;;;;;;;5125708;27;20186;-85
2021/09/18 14:05:16;;;;;;;;;;;;;;;;;;5067126;27;19929;-85
2021/09/18 14:08:03;;;;;;;;;;;;;;;;;;5139722;27;19952;-85
2021/09/18 14:11:01;;;;;;;;;;;;;;;;;;5103488;27;19958;-83
2021/09/18 14:13:42;;;;;;;;;;;;;;;;;;5082192;27;19974;-86
2021/09/18 14:16:24;;;;;;;;;;;;;;;;;;5105020;27;19959;-85
2021/09/18 14:19:06;;;;;;;;;;;;;;;;;;5130428;27;20368;-86
2021/09/18 14:21:47;;;;;;;;;;;;;;;;;;5092513;27;19971;-85
2021/09/18 14:24:28;;;;;;;;;;;;;;;;;;5114061;27;19917;-83
2021/09/18 14:27:12;;;;;;;;;;;;;;;;;;5054519;27;19933;-83
2021/09/18 14:29:55;;;;;;;;;;;;;;;;;;5135425;27;19916;-85
2021/09/18 14:32:36;;;;;;;;;;;;;;;;;;5092070;27;19917;-86
2021/09/18 14:35:17;;;;;;;;;;;;;;;;;;5076523;27;19916;-86
2021/09/18 14:37:58;;;;;;;;;;;;;;;;;;5119495;27;20374;-85
2021/09/18 14:40:40;;;;;;;;;;;;;;;;;;5055373;27;20379;-87
2021/09/18 14:43:21;;;;;;;;;;;;;;;;;;5093077;27;19920;-86
2021/09/18 14:46:03;;;;;;;;;;;;;;;;;;5084807;27;19960;-86
2021/09/18 14:48:44;;;;;;;;;;;;;;;;;;5073045;27;20334;-87
2021/09/18 14:51:25;;;;;;;;;;;;;;;;;;5047414;27;19986;-86
2021/09/18 14:54:07;;;;;;;;;;;;;;;;;;5117922;27;20000;-86
2021/09/18 14:56:48;;;;;;;;;;;;;;;;;;5078728;27;19963;-86
2021/09/18 14:59:30;;;;;;;;;;;;;;;;;;5087613;27;20022;-86
2021/09/18 15:02:12;;;;;;;;;;;;;;;;;;5113174;27;19985;-86
2021/09/18 15:04:54;;;;;;;;;;;;;;;;;;5097123;27;19938;-84
2021/09/18 15:07:36;;;;;;;;;;;;;;;;;;5082538;27;19973;-85
2021/09/18 15:10:18;;;;;;;;;;;;;;;;;;5113390;27;19962;-86
2021/09/18 15:13:00;;;;;;;;;;;;;;;;;;5082295;27;19948;-85
2021/09/18 15:15:41;;;;;;;;;;;;;;;;;;5126383;27;19916;-86
2021/09/18 15:18:23;;;;;;;;;;;;;;;;;;5073672;27;20015;-88
2021/09/18 15:21:05;;;;;;;;;;;;;;;;;;5128943;27;19962;-86
2021/09/18 15:23:45;;;;;;;;;;;;;;;;;;5137259;27;19920;-85
2021/09/18 15:26:27;;;;;;;;;;;;;;;;;;5099242;27;19948;-86
2021/09/18 15:29:08;;;;;;;;;;;;;;;;;;5141348;27;19999;-86
2021/09/18 15:31:50;;;;;;;;;;;;;;;;;;5140889;27;19971;-87
2021/09/18 15:34:31;;;;;;;;;;;;;;;;;;5102943;27;19952;-87
2021/09/18 15:37:14;;;;;;;;;;;;;;;;;;5117318;27;19943;-86
2021/09/18 15:39:54;;;;;;;;;;;;;;;;;;5083921;27;19982;-87
2021/09/18 15:42:35;;;;;;;;;;;;;;;;;;5077136;27;19974;-88
2021/09/18 15:45:17;;;;;;;;;;;;;;;;;;5082819;27;19993;-87
2021/09/18 15:47:58;;;;;;;;;;;;;;;;;;5122691;27;20062;-88
2021/09/18 15:50:40;;;;;;;;;;;;;;;;;;5116639;27;20443;-88
2021/09/18 15:53:21;;;;;;;;;;;;;;;;;;5141422;27;19950;-88
2021/09/18 15:56:03;;;;;;;;;;;;;;;;;;5153491;27;19956;-88
2021/09/18 15:58:44;;;;;;;;;;;;;;;;;;5080785;27;19955;-88
2021/09/18 16:01:25;;;;;;;;;;;;;;;;;;5111616;27;19960;-87
2021/09/18 16:04:07;;;;;;;;;;;;;;;;;;5077964;27;19981;-88
2021/09/18 16:06:48;;;;;;;;;;;;;;;;;;5142455;27;19920;-88
2021/09/18 16:09:29;;;;;;;;;;;;;;;;;;5157106;27;19943;-88
2021/09/18 16:12:11;;;;;;;;;;;;;;;;;;5116160;27;19985;-89
2021/09/18 16:14:53;;;;;;;;;;;;;;;;;;5123416;27;20614;-88
2021/09/18 16:17:35;;;;;;;;;;;;;;;;;;5112627;27;20042;-88
2021/09/18 16:20:18;;;;;;;;;;;;;;;;;;5077962;27;19968;-88
2021/09/18 16:23:00;;;;;;;;;;;;;;;;;;5141766;27;19958;-89
2021/09/18 16:36:08;;;;;;;;;;;;;;;;;;5128624;27;19989;-88
2021/09/18 16:38:49;;;;;;;;;;;;;;;;;;5097118;27;20009;-88
2021/09/18 16:41:31;;;;;;;;;;;;;;;;;;5064091;27;19928;-88
2021/09/18 16:44:14;;;;;;;;;;;;;;;;;;5100269;27;19989;-89
2021/09/18 16:46:55;;;;;;;;;;;;;;;;;;5093438;27;20399;-89
2021/09/18 16:49:37;;;;;;;;;;;;;;;;;;5119334;27;19924;-89
2021/09/18 16:52:20;;;;;;;;;;;;;;;;;;5041546;27;20430;-90
2021/09/18 16:55:01;;;;;;;;;;;;;;;;;;5038520;27;20475;-89
2021/09/18 16:57:42;;;;;;;;;;;;;;;;;;5080957;27;19981;-89
2021/09/18 17:00:26;;;;;;;;;;;;;;;;;;5078702;27;19943;-89
2021/09/18 17:03:17;;;;;;;;;;;;;;;;;;5049888;27;19919;-89
2021/09/18 17:05:59;;;;;;;;;;;;;;;;;;5057233;27;19978;-89
2021/09/18 17:19:05;;;;;;;;;;;;;;;;;;5102553;27;19981;-88
2021/09/18 17:32:15;;;;;;;;;;;;;;;;;;6126947;22;1953325;-89
2021/09/18 17:34:56;;;;;;;;;;;;;;;;;;5126830;27;19947;-89
2021/09/18 19:08:47;;;;;;;;;;;;;;;;;;5089365;28;19993;-91
2021/09/18 19:11:16;;;;;;;;;;;;;;;;;;5069740;28;19933;-91
2021/09/18 19:13:45;;;;;;;;;;;;;;;;;;5073335;28;19928;-90
2021/09/18 19:16:14;;;;;;;;;;;;;;;;;;5098086;28;20249;-91
2021/09/18 19:18:42;;;;;;;;;;;;;;;;;;5087591;28;19925;-92
2021/09/18 19:21:11;;;;;;;;;;;;;;;;;;5084248;28;19918;-89
2021/09/18 19:23:39;;;;;;;;;;;;;;;;;;5085234;28;19925;-90
2021/09/18 19:26:11;;;;;;;;;;;;;;;;;;5108330;28;19912;-88
2021/09/18 19:28:42;;;;;;;;;;;;;;;;;;5081572;28;19931;-90
2021/09/18 19:31:12;;;;;;;;;;;;;;;;;;5073822;28;19932;-91
2021/09/18 19:33:42;;;;;;;;;;;;;;;;;;5081531;28;20010;-92
2021/09/18 19:36:11;;;;;;;;;;;;;;;;;;5070284;28;19931;-90
2021/09/18 19:38:40;;;;;;;;;;;;;;;;;;5067873;28;19925;-90
2021/09/18 19:41:11;;;;;;;;;;;;;;;;;;5060067;28;19991;-90
2021/09/18 19:43:40;;;;;;;;;;;;;;;;;;5065810;28;19932;-92
2021/09/18 19:46:10;;;;;;;;;;;;;;;;;;5082397;28;19936;-88
2021/09/18 19:48:39;;;;;;;;;;;;;;;;;;5060700;28;19932;-90
2021/09/18 19:51:08;;;;;;;;;;;;;;;;;;5061999;28;19935;-93
2021/09/18 19:53:36;;;;;;;;;;;;;;;;;;5074347;28;19924;-90
2021/09/18 19:56:05;;;;;;;;;;;;;;;;;;5057533;28;19924;-93